sensor_id;sensor_type;location;lat;lon;timestamp;pressure;altitude;pressure_sealevel;temperature;humidity
9969;BME280;5025;48.890;9.278;2023-04-23T00:02:10;98108.00;;;15.25;62.23
9969;BME280;5025;48.890;9.278;2023-04-23T00:04:36;98104.47;;;15.24;62.22
9969;BME280;5025;48.890;9.278;2023-04-23T00:07:03;98111.00;;;15.23;62.34
9969;BME280;5025;48.890;9.278;2023-04-23T00:09:31;98113.47;;;15.20;62.51
9969;BME280;5025;48.890;9.278;2023-04-23T00:11:58;98117.28;;;15.14;62.59
9969;BME280;5025;48.890;9.278;2023-04-23T00:14:24;98118.38;;;15.08;62.53
9969;BME280;5025;48.890;9.278;2023-04-23T00:16:50;98125.72;;;15.02;62.57
9969;BME280;5025;48.890;9.278;2023-04-23T00:19:15;98121.38;;;14.96;62.67
9969;BME280;5025;48.890;9.278;2023-04-23T00:21:41;98126.25;;;14.88;62.87
9969;BME280;5025;48.890;9.278;2023-04-23T00:24:06;98126.81;;;14.85;62.97
9969;BME280;5025;48.890;9.278;2023-04-23T00:26:31;98120.00;;;14.78;62.88
9969;BME280;5025;48.890;9.278;2023-04-23T00:28:57;98124.66;;;14.77;62.77
9969;BME280;5025;48.890;9.278;2023-04-23T00:31:22;98121.41;;;14.75;62.39
9969;BME280;5025;48.890;9.278;2023-04-23T00:33:48;98123.53;;;14.73;62.27
9969;BME280;5025;48.890;9.278;2023-04-23T00:36:13;98127.09;;;14.74;62.36
9969;BME280;5025;48.890;9.278;2023-04-23T00:38:39;98129.53;;;14.70;62.44
9969;BME280;5025;48.890;9.278;2023-04-23T00:41:05;98137.13;;;14.73;62.30
9969;BME280;5025;48.890;9.278;2023-04-23T00:43:31;98131.16;;;14.71;62.31
9969;BME280;5025;48.890;9.278;2023-04-23T00:45:56;98145.56;;;14.66;62.65
9969;BME280;5025;48.890;9.278;2023-04-23T00:48:22;98143.09;;;14.60;62.90
9969;BME280;5025;48.890;9.278;2023-04-23T00:50:48;98134.94;;;14.60;62.79
9969;BME280;5025;48.890;9.278;2023-04-23T00:53:13;98143.09;;;14.60;62.85
9969;BME280;5025;48.890;9.278;2023-04-23T00:55:39;98151.50;;;14.48;63.67
9969;BME280;5025;48.890;9.278;2023-04-23T00:58:04;98150.97;;;14.46;63.97
9969;BME280;5025;48.890;9.278;2023-04-23T01:00:30;98149.88;;;14.42;64.31
9969;BME280;5025;48.890;9.278;2023-04-23T01:02:57;98154.75;;;14.34;64.67
9969;BME280;5025;48.890;9.278;2023-04-23T01:05:23;98157.72;;;14.28;65.81
9969;BME280;5025;48.890;9.278;2023-04-23T01:07:48;98152.81;;;14.20;66.44
9969;BME280;5025;48.890;9.278;2023-04-23T01:10:15;98165.31;;;14.21;66.60
9969;BME280;5025;48.890;9.278;2023-04-23T01:12:41;98157.72;;;14.18;66.71
9969;BME280;5025;48.890;9.278;2023-04-23T01:15:07;98166.94;;;14.22;66.99
9969;BME280;5025;48.890;9.278;2023-04-23T01:17:33;98167.19;;;14.20;67.27
9969;BME280;5025;48.890;9.278;2023-04-23T01:19:58;98169.59;;;14.01;70.13
9969;BME280;5025;48.890;9.278;2023-04-23T01:22:24;98170.78;;;13.62;72.57
9969;BME280;5025;48.890;9.278;2023-04-23T01:24:49;98163.16;;;13.54;73.60
9969;BME280;5025;48.890;9.278;2023-04-23T01:27:15;98172.69;;;13.62;73.45
9969;BME280;5025;48.890;9.278;2023-04-23T01:29:43;98167.88;;;13.74;73.09
9969;BME280;5025;48.890;9.278;2023-04-23T01:32:09;98172.19;;;13.70;73.75
9969;BME280;5025;48.890;9.278;2023-04-23T01:34:34;98175.41;;;13.62;74.31
9969;BME280;5025;48.890;9.278;2023-04-23T01:37:01;98170.94;;;13.40;75.87
9969;BME280;5025;48.890;9.278;2023-04-23T01:39:26;98177.41;;;13.34;76.71
9969;BME280;5025;48.890;9.278;2023-04-23T01:41:52;98178.84;;;13.47;76.61
9969;BME280;5025;48.890;9.278;2023-04-23T01:44:17;98183.47;;;13.47;76.87
9969;BME280;5025;48.890;9.278;2023-04-23T01:46:43;98178.66;;;13.59;76.51
9969;BME280;5025;48.890;9.278;2023-04-23T01:49:08;98183.56;;;13.67;76.30
9969;BME280;5025;48.890;9.278;2023-04-23T01:51:34;98182.72;;;13.61;76.46
9969;BME280;5025;48.890;9.278;2023-04-23T01:53:59;98184.63;;;13.66;76.50
9969;BME280;5025;48.890;9.278;2023-04-23T01:56:26;98190.09;;;13.71;76.24
9969;BME280;5025;48.890;9.278;2023-04-23T01:58:52;98189.06;;;13.77;75.96
9969;BME280;5025;48.890;9.278;2023-04-23T02:01:17;98184.44;;;13.83;75.79
9969;BME280;5025;48.890;9.278;2023-04-23T02:03:43;98188.81;;;13.89;75.51
9969;BME280;5025;48.890;9.278;2023-04-23T02:06:10;98186.94;;;14.00;74.91
9969;BME280;5025;48.890;9.278;2023-04-23T02:08:35;98187.53;;;14.07;74.60
9969;BME280;5025;48.890;9.278;2023-04-23T02:11:01;98199.50;;;14.11;74.36
9969;BME280;5025;48.890;9.278;2023-04-23T02:13:26;98194.34;;;14.15;74.17
9969;BME280;5025;48.890;9.278;2023-04-23T02:15:51;98197.34;;;14.19;73.96
9969;BME280;5025;48.890;9.278;2023-04-23T02:18:17;98204.16;;;14.21;73.95
9969;BME280;5025;48.890;9.278;2023-04-23T02:20:42;98202.81;;;14.24;73.82
9969;BME280;5025;48.890;9.278;2023-04-23T02:23:07;98193.56;;;14.25;73.79
9969;BME280;5025;48.890;9.278;2023-04-23T02:25:33;98196.84;;;14.27;73.75
9969;BME280;5025;48.890;9.278;2023-04-23T02:27:59;98207.69;;;14.27;73.80
9969;BME280;5025;48.890;9.278;2023-04-23T02:30:25;98208.78;;;14.26;73.84
9969;BME280;5025;48.890;9.278;2023-04-23T02:32:51;98213.09;;;14.22;74.04
9969;BME280;5025;48.890;9.278;2023-04-23T02:35:16;98208.78;;;14.21;74.01
9969;BME280;5025;48.890;9.278;2023-04-23T02:37:42;98213.09;;;14.16;74.18
9969;BME280;5025;48.890;9.278;2023-04-23T02:40:07;98206.00;;;14.15;74.17
9969;BME280;5025;48.890;9.278;2023-04-23T02:42:33;98203.31;;;14.15;74.25
9969;BME280;5025;48.890;9.278;2023-04-23T02:44:58;98206.84;;;14.16;74.37
9969;BME280;5025;48.890;9.278;2023-04-23T02:47:23;98204.69;;;14.18;74.40
9969;BME280;5025;48.890;9.278;2023-04-23T02:49:49;98193.53;;;14.14;74.65
9969;BME280;5025;48.890;9.278;2023-04-23T02:52:14;98203.03;;;14.17;74.90
9969;BME280;5025;48.890;9.278;2023-04-23T02:54:40;98198.72;;;14.16;75.04
9969;BME280;5025;48.890;9.278;2023-04-23T02:57:05;98194.34;;;14.15;75.28
9969;BME280;5025;48.890;9.278;2023-04-23T02:59:31;98184.56;;;14.14;75.40
9969;BME280;5025;48.890;9.278;2023-04-23T03:01:56;98187.28;;;14.14;75.50
9969;BME280;5025;48.890;9.278;2023-04-23T03:04:22;98183.75;;;14.13;75.83
9969;BME280;5025;48.890;9.278;2023-04-23T03:06:47;98191.34;;;14.11;76.11
9969;BME280;5025;48.890;9.278;2023-04-23T03:09:13;98195.16;;;14.10;76.28
9969;BME280;5025;48.890;9.278;2023-04-23T03:11:38;98200.03;;;14.08;76.45
9969;BME280;5025;48.890;9.278;2023-04-23T03:14:03;98199.72;;;14.05;77.13
9969;BME280;5025;48.890;9.278;2023-04-23T03:16:29;98204.34;;;14.04;76.93
9969;BME280;5025;48.890;9.278;2023-04-23T03:18:55;98210.59;;;14.05;77.03
9969;BME280;5025;48.890;9.278;2023-04-23T03:21:21;98205.69;;;14.02;77.04
9969;BME280;5025;48.890;9.278;2023-04-23T03:23:46;98200.25;;;13.96;77.12
9969;BME280;5025;48.890;9.278;2023-04-23T03:26:11;98205.94;;;13.95;77.19
9969;BME280;5025;48.890;9.278;2023-04-23T03:28:36;98197.25;;;13.93;77.27
9969;BME280;5025;48.890;9.278;2023-04-23T03:31:02;98199.97;;;13.93;77.45
9969;BME280;5025;48.890;9.278;2023-04-23T03:33:27;98190.19;;;13.92;77.29
9969;BME280;5025;48.890;9.278;2023-04-23T03:35:52;98187.47;;;13.92;77.23
9969;BME280;5025;48.890;9.278;2023-04-23T03:38:18;98184.22;;;13.90;77.05
9969;BME280;5025;48.890;9.278;2023-04-23T03:40:43;98179.84;;;13.89;76.92
9969;BME280;5025;48.890;9.278;2023-04-23T03:43:09;98175.50;;;13.88;76.92
9969;BME280;5025;48.890;9.278;2023-04-23T03:45:34;98177.94;;;13.84;76.93
9969;BME280;5025;48.890;9.278;2023-04-23T03:47:59;98179.00;;;13.83;76.92
9969;BME280;5025;48.890;9.278;2023-04-23T03:50:25;98184.72;;;13.81;76.86
9969;BME280;5025;48.890;9.278;2023-04-23T03:52:50;98186.06;;;13.79;76.93
9969;BME280;5025;48.890;9.278;2023-04-23T03:55:15;98183.34;;;13.79;77.11
9969;BME280;5025;48.890;9.278;2023-04-23T03:57:40;98183.63;;;13.77;76.91
9969;BME280;5025;48.890;9.278;2023-04-23T04:00:06;98179.25;;;13.76;77.03
9969;BME280;5025;48.890;9.278;2023-04-23T04:02:36;98196.63;;;13.75;77.21
9969;BME280;5025;48.890;9.278;2023-04-23T04:05:03;98186.88;;;13.74;77.19
9969;BME280;5025;48.890;9.278;2023-04-23T04:07:29;98194.16;;;13.74;77.61
9969;BME280;5025;48.890;9.278;2023-04-23T04:09:54;98198.25;;;13.71;77.62
9969;BME280;5025;48.890;9.278;2023-04-23T04:12:19;98208.53;;;13.69;77.77
9969;BME280;5025;48.890;9.278;2023-04-23T04:14:45;98209.06;;;13.66;77.99
9969;BME280;5025;48.890;9.278;2023-04-23T04:17:10;98216.66;;;13.64;77.87
9969;BME280;5025;48.890;9.278;2023-04-23T04:19:37;98210.09;;;13.60;78.06
9969;BME280;5025;48.890;9.278;2023-04-23T04:22:02;98201.69;;;13.56;78.22
9969;BME280;5025;48.890;9.278;2023-04-23T04:24:28;98212.28;;;13.58;78.63
9969;BME280;5025;48.890;9.278;2023-04-23T04:26:57;98202.75;;;13.55;78.48
9969;BME280;5025;48.890;9.278;2023-04-23T04:29:22;98200.03;;;13.55;78.52
9969;BME280;5025;48.890;9.278;2023-04-23T04:31:48;98201.94;;;13.55;78.84
9969;BME280;5025;48.890;9.278;2023-04-23T04:34:13;98204.91;;;13.53;78.80
9969;BME280;5025;48.890;9.278;2023-04-23T04:36:39;98204.13;;;13.53;79.15
9969;BME280;5025;48.890;9.278;2023-04-23T04:39:05;98210.88;;;13.50;79.15
9969;BME280;5025;48.890;9.278;2023-04-23T04:41:31;98211.69;;;13.51;79.26
9969;BME280;5025;48.890;9.278;2023-04-23T04:43:56;98211.38;;;13.47;79.51
9969;BME280;5025;48.890;9.278;2023-04-23T04:46:22;98218.16;;;13.44;79.55
9969;BME280;5025;48.890;9.278;2023-04-23T04:48:50;98218.94;;;13.40;79.59
9969;BME280;5025;48.890;9.278;2023-04-23T04:51:15;98221.91;;;13.38;79.98
9969;BME280;5025;48.890;9.278;2023-04-23T04:53:41;98221.91;;;13.38;79.98
9969;BME280;5025;48.890;9.278;2023-04-23T04:56:07;98219.19;;;13.38;80.01
9969;BME280;5025;48.890;9.278;2023-04-23T04:58:32;98220.03;;;13.39;80.22
9969;BME280;5025;48.890;9.278;2023-04-23T05:00:57;98220.28;;;13.37;80.16
9969;BME280;5025;48.890;9.278;2023-04-23T05:03:23;98218.13;;;13.39;80.25
9969;BME280;5025;48.890;9.278;2023-04-23T05:05:49;98220.84;;;13.39;80.27
9969;BME280;5025;48.890;9.278;2023-04-23T05:08:14;98211.06;;;13.38;80.34
9969;BME280;5025;48.890;9.278;2023-04-23T05:10:41;98218.66;;;13.41;80.34
9969;BME280;5025;48.890;9.278;2023-04-23T05:13:06;98209.72;;;13.41;80.35
9969;BME280;5025;48.890;9.278;2023-04-23T05:15:32;98215.44;;;13.44;79.88
9969;BME280;5025;48.890;9.278;2023-04-23T05:17:57;98215.75;;;13.48;80.17
9969;BME280;5025;48.890;9.278;2023-04-23T05:20:22;98212.78;;;13.50;80.44
9969;BME280;5025;48.890;9.278;2023-04-23T05:22:47;98215.78;;;13.53;80.41
9969;BME280;5025;48.890;9.278;2023-04-23T05:25:13;98213.88;;;13.54;80.46
9969;BME280;5025;48.890;9.278;2023-04-23T05:27:39;98216.31;;;13.55;80.55
9969;BME280;5025;48.890;9.278;2023-04-23T05:30:06;98213.06;;;13.58;80.63
9969;BME280;5025;48.890;9.278;2023-04-23T05:32:32;98206.31;;;13.61;80.70
9969;BME280;5025;48.890;9.278;2023-04-23T05:34:58;98214.19;;;13.62;80.43
9969;BME280;5025;48.890;9.278;2023-04-23T05:37:27;98218.28;;;13.65;80.86
9969;BME280;5025;48.890;9.278;2023-04-23T05:39:53;98217.50;;;13.70;80.85
9969;BME280;5025;48.890;9.278;2023-04-23T05:42:18;98215.59;;;13.70;80.99
9969;BME280;5025;48.890;9.278;2023-04-23T05:44:43;98216.72;;;13.74;81.02
9969;BME280;5025;48.890;9.278;2023-04-23T05:47:09;98215.34;;;13.77;81.08
9969;BME280;5025;48.890;9.278;2023-04-23T05:49:35;98219.16;;;13.76;80.97
9969;BME280;5025;48.890;9.278;2023-04-23T05:52:01;98217.53;;;13.75;81.09
9969;BME280;5025;48.890;9.278;2023-04-23T05:54:29;98222.13;;;13.74;80.92
9969;BME280;5025;48.890;9.278;2023-04-23T05:56:55;98226.44;;;13.70;81.09
9969;BME280;5025;48.890;9.278;2023-04-23T05:59:20;98224.81;;;13.69;81.38
9969;BME280;5025;48.890;9.278;2023-04-23T06:01:49;98231.34;;;13.68;81.24
9969;BME280;5025;48.890;9.278;2023-04-23T06:04:17;98234.03;;;13.68;81.47
9969;BME280;5025;48.890;9.278;2023-04-23T06:06:42;98235.91;;;13.68;81.59
9969;BME280;5025;48.890;9.278;2023-04-23T06:09:08;98230.47;;;13.62;81.83
9969;BME280;5025;48.890;9.278;2023-04-23T06:11:33;98235.91;;;13.68;81.68
9969;BME280;5025;48.890;9.278;2023-04-23T06:14:00;98223.47;;;13.72;81.73
9969;BME280;5025;48.890;9.278;2023-04-23T06:16:26;98229.19;;;13.75;81.59
9969;BME280;5025;48.890;9.278;2023-04-23T06:18:51;98227.03;;;13.77;81.47
9969;BME280;5025;48.890;9.278;2023-04-23T06:21:16;98225.94;;;13.78;81.34
9969;BME280;5025;48.890;9.278;2023-04-23T06:23:42;98221.34;;;13.79;81.29
9969;BME280;5025;48.890;9.278;2023-04-23T06:26:07;98221.34;;;13.79;81.27
9969;BME280;5025;48.890;9.278;2023-04-23T06:28:32;98223.28;;;13.84;81.04
9969;BME280;5025;48.890;9.278;2023-04-23T06:30:57;98225.47;;;13.87;80.81
9969;BME280;5025;48.890;9.278;2023-04-23T06:33:23;98221.91;;;13.86;81.33
9969;BME280;5025;48.890;9.278;2023-04-23T06:35:48;98218.66;;;13.84;81.07
9969;BME280;5025;48.890;9.278;2023-04-23T06:38:14;98222.47;;;13.88;80.95
9969;BME280;5025;48.890;9.278;2023-04-23T06:40:40;98220.84;;;13.92;81.02
9969;BME280;5025;48.890;9.278;2023-04-23T06:43:05;98217.59;;;13.95;80.71
9969;BME280;5025;48.890;9.278;2023-04-23T06:45:32;98221.97;;;13.96;80.69
9969;BME280;5025;48.890;9.278;2023-04-23T06:47:58;98223.34;;;13.99;80.69
9969;BME280;5025;48.890;9.278;2023-04-23T06:50:23;98208.97;;;14.04;80.67
9969;BME280;5025;48.890;9.278;2023-04-23T06:52:48;98211.44;;;14.05;80.55
9969;BME280;5025;48.890;9.278;2023-04-23T06:55:14;98210.31;;;14.06;80.42
9969;BME280;5025;48.890;9.278;2023-04-23T06:57:39;98193.78;;;14.08;80.23
9969;BME280;5025;48.890;9.278;2023-04-23T07:00:05;98207.66;;;14.11;80.23
9969;BME280;5025;48.890;9.278;2023-04-23T07:02:35;98200.84;;;14.09;80.04
9969;BME280;5025;48.890;9.278;2023-04-23T07:05:00;98190.25;;;14.07;80.06
9969;BME280;5025;48.890;9.278;2023-04-23T07:07:26;98193.81;;;14.13;80.00
9969;BME280;5025;48.890;9.278;2023-04-23T07:09:51;98197.59;;;14.17;79.71
9969;BME280;5025;48.890;9.278;2023-04-23T07:12:17;98196.00;;;14.21;79.69
9969;BME280;5025;48.890;9.278;2023-04-23T07:14:42;98195.19;;;14.26;79.58
9969;BME280;5025;48.890;9.278;2023-04-23T07:17:07;98193.28;;;14.26;79.37
9969;BME280;5025;48.890;9.278;2023-04-23T07:19:33;98192.75;;;14.29;79.17
9969;BME280;5025;48.890;9.278;2023-04-23T07:21:58;98196.56;;;14.28;79.08
9969;BME280;5025;48.890;9.278;2023-04-23T07:24:24;98189.50;;;14.32;78.91
9969;BME280;5025;48.890;9.278;2023-04-23T07:26:50;98192.78;;;14.34;78.81
9969;BME280;5025;48.890;9.278;2023-04-23T07:29:15;98188.69;;;14.32;78.62
9969;BME280;5025;48.890;9.278;2023-04-23T07:31:41;98189.75;;;14.21;78.52
9969;BME280;5025;48.890;9.278;2023-04-23T07:34:06;98188.38;;;14.13;78.28
9969;BME280;5025;48.890;9.278;2023-04-23T07:36:32;98191.38;;;14.22;78.03
9969;BME280;5025;48.890;9.278;2023-04-23T07:38:57;98189.78;;;14.31;77.78
9969;BME280;5025;48.890;9.278;2023-04-23T07:41:23;98185.97;;;14.37;77.34
9969;BME280;5025;48.890;9.278;2023-04-23T07:43:49;98183.22;;;14.22;76.24
9969;BME280;5025;48.890;9.278;2023-04-23T07:46:14;98182.94;;;14.18;76.11
9969;BME280;5025;48.890;9.278;2023-04-23T07:48:39;98177.28;;;14.30;75.83
9969;BME280;5025;48.890;9.278;2023-04-23T07:51:05;98178.94;;;14.41;75.41
9969;BME280;5025;48.890;9.278;2023-04-23T07:53:30;98184.94;;;14.48;75.46
9969;BME280;5025;48.890;9.278;2023-04-23T07:55:56;98176.78;;;14.53;75.13
9969;BME280;5025;48.890;9.278;2023-04-23T07:58:23;98178.41;;;14.55;74.78
9969;BME280;5025;48.890;9.278;2023-04-23T08:00:48;98174.06;;;14.59;74.66
9969;BME280;5025;48.890;9.278;2023-04-23T08:03:14;98174.09;;;14.64;74.44
9969;BME280;5025;48.890;9.278;2023-04-23T08:05:39;98173.84;;;14.70;74.13
9969;BME280;5025;48.890;9.278;2023-04-23T08:08:05;98176.56;;;14.76;73.65
9969;BME280;5025;48.890;9.278;2023-04-23T08:10:31;98173.84;;;14.76;73.57
9969;BME280;5025;48.890;9.278;2023-04-23T08:12:56;98165.94;;;14.79;73.32
9969;BME280;5025;48.890;9.278;2023-04-23T08:15:22;98164.31;;;14.83;73.12
9969;BME280;5025;48.890;9.278;2023-04-23T08:17:47;98165.41;;;14.62;70.77
9969;BME280;5025;48.890;9.278;2023-04-23T08:20:12;98161.56;;;14.42;70.38
9969;BME280;5025;48.890;9.278;2023-04-23T08:22:37;98157.47;;;14.50;70.96
9969;BME280;5025;48.890;9.278;2023-04-23T08:25:03;98151.78;;;14.57;70.38
9969;BME280;5025;48.890;9.278;2023-04-23T08:27:29;98143.66;;;14.67;70.34
9969;BME280;5025;48.890;9.278;2023-04-23T08:29:54;98138.78;;;14.69;70.11
9969;BME280;5025;48.890;9.278;2023-04-23T08:32:20;98148.31;;;14.77;70.13
9969;BME280;5025;48.890;9.278;2023-04-23T08:34:45;98148.56;;;14.85;69.81
9969;BME280;5025;48.890;9.278;2023-04-23T08:37:10;98147.47;;;14.92;69.29
9969;BME280;5025;48.890;9.278;2023-04-23T08:39:35;98144.75;;;14.97;69.30
9969;BME280;5025;48.890;9.278;2023-04-23T08:42:09;98142.03;;;15.02;69.00
9969;BME280;5025;48.890;9.278;2023-04-23T08:44:37;98146.13;;;15.04;68.84
9969;BME280;5025;48.890;9.278;2023-04-23T08:47:06;98143.66;;;15.08;68.35
9969;BME280;5025;48.890;9.278;2023-04-23T08:49:33;98145.56;;;15.08;67.97
9969;BME280;5025;48.890;9.278;2023-04-23T08:52:13;98140.09;;;15.13;67.88
9969;BME280;5025;48.890;9.278;2023-04-23T08:54:40;98143.66;;;15.18;67.69
9969;BME280;5025;48.890;9.278;2023-04-23T08:57:07;98139.25;;;15.22;67.17
9969;BME280;5025;48.890;9.278;2023-04-23T08:59:33;98141.44;;;15.26;66.92
9969;BME280;5025;48.890;9.278;2023-04-23T09:01:59;98127.84;;;15.31;66.63
9969;BME280;5025;48.890;9.278;2023-04-23T09:04:32;98129.19;;;15.38;66.51
9969;BME280;5025;48.890;9.278;2023-04-23T09:06:58;98125.09;;;15.46;66.04
9969;BME280;5025;48.890;9.278;2023-04-23T09:09:27;98128.88;;;15.55;65.71
9969;BME280;5025;48.890;9.278;2023-04-23T09:11:54;98133.44;;;15.65;65.46
9969;BME280;5025;48.890;9.278;2023-04-23T09:14:21;98134.78;;;15.73;65.17
9969;BME280;5025;48.890;9.278;2023-04-23T09:16:49;98130.44;;;15.77;65.01
9969;BME280;5025;48.890;9.278;2023-04-23T09:19:16;98119.22;;;15.89;64.63
9969;BME280;5025;48.890;9.278;2023-04-23T09:21:43;98115.13;;;15.91;64.61
9969;BME280;5025;48.890;9.278;2023-04-23T09:24:09;98109.59;;;16.02;64.49
9969;BME280;5025;48.890;9.278;2023-04-23T09:26:44;98102.75;;;16.15;64.15
9969;BME280;5025;48.890;9.278;2023-04-23T09:29:18;98098.56;;;16.27;64.04
9969;BME280;5025;48.890;9.278;2023-04-23T09:31:45;98107.25;;;16.35;63.71
9969;BME280;5025;48.890;9.278;2023-04-23T09:34:13;98092.72;;;16.44;63.22
9969;BME280;5025;48.890;9.278;2023-04-23T09:36:39;98086.91;;;16.56;63.11
9969;BME280;5025;48.890;9.278;2023-04-23T09:39:11;98094.69;;;16.68;62.57
9969;BME280;5025;48.890;9.278;2023-04-23T09:41:36;98084.88;;;16.72;61.65
9969;BME280;5025;48.890;9.278;2023-04-23T09:44:02;98079.63;;;16.76;61.46
9969;BME280;5025;48.890;9.278;2023-04-23T09:46:40;98067.59;;;16.82;60.62
9969;BME280;5025;48.890;9.278;2023-04-23T09:49:08;98071.91;;;16.88;60.75
9969;BME280;5025;48.890;9.278;2023-04-23T09:51:38;98066.38;;;16.98;60.17
9969;BME280;5025;48.890;9.278;2023-04-23T09:54:10;98069.28;;;17.07;59.69
9969;BME280;5025;48.890;9.278;2023-04-23T09:56:36;98062.13;;;17.11;59.46
9969;BME280;5025;48.890;9.278;2023-04-23T09:59:01;98061.22;;;17.21;59.43
9969;BME280;5025;48.890;9.278;2023-04-23T10:01:27;98059.75;;;17.29;58.82
9969;BME280;5025;48.890;9.278;2023-04-23T10:03:53;98055.94;;;17.30;58.70
9969;BME280;5025;48.890;9.278;2023-04-23T10:06:26;98052.03;;;17.36;58.24
9969;BME280;5025;48.890;9.278;2023-04-23T10:08:55;98043.19;;;17.44;58.10
9969;BME280;5025;48.890;9.278;2023-04-23T10:11:22;98045.00;;;17.54;57.74
9969;BME280;5025;48.890;9.278;2023-04-23T10:13:48;98043.38;;;17.53;57.23
9969;BME280;5025;48.890;9.278;2023-04-23T10:16:14;98036.88;;;17.49;56.98
9969;BME280;5025;48.890;9.278;2023-04-23T10:18:39;98034.69;;;17.51;56.76
9969;BME280;5025;48.890;9.278;2023-04-23T10:21:05;98034.09;;;17.54;56.36
9969;BME280;5025;48.890;9.278;2023-04-23T10:23:32;98033.44;;;17.62;56.12
9969;BME280;5025;48.890;9.278;2023-04-23T10:25:59;98036.06;;;17.67;55.96
9969;BME280;5025;48.890;9.278;2023-04-23T10:28:25;98026.72;;;17.73;55.46
9969;BME280;5025;48.890;9.278;2023-04-23T10:30:56;98023.94;;;17.79;55.02
9969;BME280;5025;48.890;9.278;2023-04-23T10:33:23;98022.75;;;17.85;54.93
9969;BME280;5025;48.890;9.278;2023-04-23T10:35:51;98017.75;;;17.92;54.45
9969;BME280;5025;48.890;9.278;2023-04-23T10:38:18;98016.63;;;17.93;53.79
9969;BME280;5025;48.890;9.278;2023-04-23T10:40:48;97994.28;;;17.91;53.42
9969;BME280;5025;48.890;9.278;2023-04-23T10:43:15;98008.25;;;17.84;53.03
9969;BME280;5025;48.890;9.278;2023-04-23T10:45:42;97998.13;;;17.90;52.90
9969;BME280;5025;48.890;9.278;2023-04-23T10:48:08;97991.16;;;17.98;53.27
9969;BME280;5025;48.890;9.278;2023-04-23T10:50:36;97993.75;;;18.08;52.78
9969;BME280;5025;48.890;9.278;2023-04-23T10:53:02;97991.31;;;18.06;52.09
9969;BME280;5025;48.890;9.278;2023-04-23T10:55:29;97984.97;;;17.92;50.29
9969;BME280;5025;48.890;9.278;2023-04-23T10:58:10;97976.03;;;17.86;49.63
9969;BME280;5025;48.890;9.278;2023-04-23T11:05:54;97978.59;;;18.16;49.52
9969;BME280;5025;48.890;9.278;2023-04-23T11:08:19;97983.31;;;18.10;48.82
9969;BME280;5025;48.890;9.278;2023-04-23T11:10:56;97966.28;;;17.99;48.32
9969;BME280;5025;48.890;9.278;2023-04-23T11:13:23;97961.56;;;18.05;47.69
9969;BME280;5025;48.890;9.278;2023-04-23T11:16:21;97958.56;;;18.20;46.90
9969;BME280;5025;48.890;9.278;2023-04-23T11:19:03;97960.22;;;18.35;46.58
9969;BME280;5025;48.890;9.278;2023-04-23T11:22:00;97951.75;;;18.51;46.20
9969;BME280;5025;48.890;9.278;2023-04-23T11:24:37;97944.47;;;18.60;46.16
9969;BME280;5025;48.890;9.278;2023-04-23T11:27:10;97948.28;;;18.45;44.35
9969;BME280;5025;48.890;9.278;2023-04-23T11:29:44;97961.50;;;18.24;43.59
9969;BME280;5025;48.890;9.278;2023-04-23T11:32:12;97953.91;;;18.21;43.81
9969;BME280;5025;48.890;9.278;2023-04-23T11:34:40;97944.50;;;18.27;43.78
9969;BME280;5025;48.890;9.278;2023-04-23T11:37:09;97947.75;;;18.29;43.37
9969;BME280;5025;48.890;9.278;2023-04-23T11:39:35;97945.22;;;18.19;43.73
9969;BME280;5025;48.890;9.278;2023-04-23T11:42:03;97935.19;;;18.14;44.06
9969;BME280;5025;48.890;9.278;2023-04-23T11:44:30;97948.75;;;18.19;44.01
9969;BME280;5025;48.890;9.278;2023-04-23T11:46:59;97945.00;;;18.29;44.04
9969;BME280;5025;48.890;9.278;2023-04-23T11:49:25;97927.41;;;18.35;44.00
9969;BME280;5025;48.890;9.278;2023-04-23T11:51:50;97920.94;;;18.45;43.64
9969;BME280;5025;48.890;9.278;2023-04-23T11:54:15;97912.56;;;18.55;43.84
9969;BME280;5025;48.890;9.278;2023-04-23T11:56:41;97911.47;;;18.70;43.45
9969;BME280;5025;48.890;9.278;2023-04-23T11:59:07;97894.81;;;18.80;43.36
9969;BME280;5025;48.890;9.278;2023-04-23T12:01:39;97895.47;;;18.91;43.08
9969;BME280;5025;48.890;9.278;2023-04-23T12:04:17;97892.03;;;18.99;43.50
9969;BME280;5025;48.890;9.278;2023-04-23T12:06:44;97886.22;;;19.15;43.06
9969;BME280;5025;48.890;9.278;2023-04-23T12:09:10;97882.44;;;19.25;43.02
9969;BME280;5025;48.890;9.278;2023-04-23T12:11:37;97870.44;;;19.34;42.96
9969;BME280;5025;48.890;9.278;2023-04-23T12:14:03;97859.72;;;19.38;42.45
9969;BME280;5025;48.890;9.278;2023-04-23T12:16:43;97866.13;;;19.56;42.56
9969;BME280;5025;48.890;9.278;2023-04-23T12:19:23;97863.53;;;19.74;42.13
9969;BME280;5025;48.890;9.278;2023-04-23T12:24:26;97857.94;;;19.79;40.96
9969;BME280;5025;48.890;9.278;2023-04-23T12:26:53;97856.41;;;19.73;40.42
9969;BME280;5025;48.890;9.278;2023-04-23T12:29:21;97854.47;;;19.73;40.40
9969;BME280;5025;48.890;9.278;2023-04-23T12:31:48;97852.97;;;19.67;40.11
9969;BME280;5025;48.890;9.278;2023-04-23T12:34:14;97847.19;;;19.68;40.36
9969;BME280;5025;48.890;9.278;2023-04-23T12:36:50;97841.53;;;19.65;40.15
9969;BME280;5025;48.890;9.278;2023-04-23T12:39:29;97839.72;;;19.60;40.62
9969;BME280;5025;48.890;9.278;2023-04-23T12:41:57;97836.00;;;19.56;40.68
9969;BME280;5025;48.890;9.278;2023-04-23T12:44:32;97839.34;;;19.53;41.40
9969;BME280;5025;48.890;9.278;2023-04-23T12:47:00;97834.06;;;19.57;41.07
9969;BME280;5025;48.890;9.278;2023-04-23T12:49:28;97829.97;;;19.68;41.39
9969;BME280;5025;48.890;9.278;2023-04-23T12:51:58;97823.50;;;19.86;41.66
9969;BME280;5025;48.890;9.278;2023-04-23T12:54:26;97809.41;;;20.11;41.52
9969;BME280;5025;48.890;9.278;2023-04-23T12:56:54;97807.94;;;20.45;41.78
9969;BME280;5025;48.890;9.278;2023-04-23T12:59:19;97803.38;;;20.71;41.65
9969;BME280;5025;48.890;9.278;2023-04-23T13:01:44;97789.38;;;20.90;41.35
9969;BME280;5025;48.890;9.278;2023-04-23T13:04:10;97793.91;;;21.04;40.89
9969;BME280;5025;48.890;9.278;2023-04-23T13:06:35;97801.47;;;21.16;40.31
9969;BME280;5025;48.890;9.278;2023-04-23T13:09:00;97792.91;;;21.17;39.86
9969;BME280;5025;48.890;9.278;2023-04-23T13:11:30;97787.44;;;21.00;38.43
9969;BME280;5025;48.890;9.278;2023-04-23T13:13:56;97776.13;;;21.10;38.55
9969;BME280;5025;48.890;9.278;2023-04-23T13:16:21;97776.28;;;21.22;38.50
9969;BME280;5025;48.890;9.278;2023-04-23T13:18:47;97761.56;;;21.36;37.78
9969;BME280;5025;48.890;9.278;2023-04-23T13:21:15;97757.22;;;21.52;37.45
9969;BME280;5025;48.890;9.278;2023-04-23T13:23:40;97751.06;;;21.38;37.05
9969;BME280;5025;48.890;9.278;2023-04-23T13:26:06;97748.50;;;21.41;37.28
9969;BME280;5025;48.890;9.278;2023-04-23T13:28:32;97737.00;;;21.48;37.01